createdAt,value
2024-05-09T00:00:18.650Z,100317.19
2024-05-09T00:03:10.406Z,100320.81
2024-05-09T00:05:44.767Z,100317.44
2024-05-09T00:08:23.589Z,100311.38
2024-05-09T00:10:53.316Z,100312.31
2024-05-09T00:13:20.617Z,100315.03
2024-05-09T00:16:08.851Z,100312.47
2024-05-09T00:18:42.617Z,100320.31
2024-05-09T00:21:18.551Z,100326.44
2024-05-09T00:23:46.098Z,100328.13
2024-05-09T00:26:17.737Z,100319.34
2024-05-09T00:28:44.842Z,100313.31
2024-05-09T00:31:11.922Z,100318.56
2024-05-09T00:33:39.291Z,100320.28
2024-05-09T00:36:07.316Z,100334.19
2024-05-09T00:38:34.800Z,100320.22
2024-05-09T00:41:02.237Z,100328.13
2024-05-09T00:43:29.776Z,100328.09
2024-05-09T00:45:57.510Z,100323.72
2024-05-09T00:48:42.407Z,100334.16
2024-05-09T00:51:10.319Z,100335.09
2024-05-09T00:53:38.040Z,100334.25
2024-05-09T00:56:05.666Z,100328.94
2024-05-09T00:58:33.163Z,100337.69
2024-05-09T01:01:02.911Z,100334.16
2024-05-09T01:03:30.187Z,100336.91
2024-05-09T01:05:57.737Z,100347.38
2024-05-09T01:08:24.961Z,100344.81
2024-05-09T01:10:52.381Z,100343.94
2024-05-09T01:13:19.602Z,100343.09
2024-05-09T01:15:48.614Z,100344.03
2024-05-09T01:18:16.395Z,100339.69
2024-05-09T01:20:45.100Z,100341.44
2024-05-09T01:23:15.602Z,100344.88
2024-05-09T01:25:45.014Z,100341.38
2024-05-09T01:28:12.528Z,100341.31
2024-05-09T01:30:39.888Z,100339.53
2024-05-09T01:33:09.297Z,100341.22
2024-05-09T01:35:39.302Z,100336.75
2024-05-09T01:38:07.717Z,100339.41
2024-05-09T01:40:38.927Z,100341.03
2024-05-09T01:43:09.895Z,100342.66
2024-05-09T01:45:38.720Z,100345.13
2024-05-09T01:48:06.906Z,100354.56
2024-05-09T01:50:39.407Z,100360.59
2024-05-09T01:53:10.483Z,100366.63
2024-05-09T01:55:38.201Z,100351.66
2024-05-09T01:58:05.813Z,100359.50
2024-05-09T02:00:39.490Z,100360.38
2024-05-09T02:03:16.601Z,100356.78
2024-05-09T02:05:47.477Z,100364.72
2024-05-09T02:08:18.385Z,100369.94
2024-05-09T02:10:47.958Z,100376.13
2024-05-09T02:13:22.762Z,100378.75
2024-05-09T02:15:52.992Z,100376.00
2024-05-09T02:18:23.899Z,100381.31
2024-05-09T02:20:52.117Z,100378.66
2024-05-09T02:23:20.172Z,100383.78
2024-05-09T02:25:52.901Z,100382.84
2024-05-09T02:28:22.182Z,100383.63
2024-05-09T02:31:04.451Z,100393.25
2024-05-09T02:33:55.165Z,100387.09
2024-05-09T02:36:25.149Z,100389.63
2024-05-09T02:39:38.772Z,100400.06
2024-05-09T02:41:56.529Z,100396.47
2024-05-09T02:44:28.878Z,100401.56
2024-05-09T02:47:40.194Z,100414.56
2024-05-09T02:50:23.031Z,100404.69
2024-05-09T02:56:25.423Z,100413.63
2024-05-09T02:58:58.220Z,100416.91
2024-05-09T03:01:33.157Z,100428.19
2024-05-09T03:04:15.563Z,100419.16
2024-05-09T03:09:52.957Z,100423.56
2024-05-09T03:12:54.318Z,100423.13
2024-05-09T03:15:38.264Z,100416.84
2024-05-09T03:18:07.231Z,100413.78
2024-05-09T03:20:36.215Z,100420.25
2024-05-09T03:23:05.826Z,100416.72
2024-05-09T03:25:33.932Z,100417.44
2024-05-09T03:28:01.568Z,100424.78
2024-05-09T03:30:36.235Z,100423.72
2024-05-09T03:33:13.949Z,100418.69
2024-05-09T03:35:45.408Z,100427.47
2024-05-09T03:38:13.730Z,100423.91
2024-05-09T03:40:47.497Z,100428.88
2024-05-09T03:43:30.192Z,100434.41
2024-05-09T03:45:57.704Z,100437.75
2024-05-09T03:48:25.601Z,100443.28
2024-05-09T03:50:53.605Z,100434.38
2024-05-09T03:53:23.094Z,100444.28
2024-05-09T03:55:50.535Z,100439.28
2024-05-09T03:58:19.312Z,100448.34
2024-05-09T04:00:47.122Z,100436.28
2024-05-09T04:03:15.557Z,100441.75
2024-05-09T04:05:44.728Z,100448.13
2024-05-09T04:08:13.431Z,100441.28
2024-05-09T04:10:41.734Z,100440.34
2024-05-09T04:13:10.184Z,100438.78
2024-05-09T04:15:37.817Z,100435.03
2024-05-09T04:18:05.820Z,100433.81
2024-05-09T04:20:38.415Z,100434.97
2024-05-09T04:23:12.626Z,100426.09
2024-05-09T04:25:47.627Z,100428.31
2024-05-09T04:28:37.390Z,100421.97
2024-05-09T04:34:49.743Z,100422.09
2024-05-09T04:37:40.133Z,100424.50
2024-05-09T04:42:55.892Z,100423.91
2024-05-09T04:45:23.354Z,100436.75
2024-05-09T04:47:53.395Z,100444.50
2024-05-09T04:50:33.465Z,100428.47
2024-05-09T04:53:03.349Z,100446.22
2024-05-09T04:55:36.404Z,100449.50
2024-05-09T04:58:04.221Z,100446.84
2024-05-09T05:00:36.489Z,100433.78
2024-05-09T05:03:13.247Z,100444.19
2024-05-09T05:05:47.094Z,100440.19
2024-05-09T05:08:16.887Z,100444.94
2024-05-09T05:10:46.655Z,100450.03
2024-05-09T05:13:23.416Z,100438.75
2024-05-09T05:15:53.793Z,100447.34
2024-05-09T05:31:31.246Z,100460.47
2024-05-09T05:33:58.844Z,100467.06
2024-05-09T05:36:26.041Z,100467.69
2024-05-09T05:39:05.589Z,100460.00
2024-05-09T05:47:21.405Z,100464.53
2024-05-09T05:49:48.967Z,100470.34
2024-05-09T05:52:20.693Z,100465.41
2024-05-09T05:55:06.541Z,100467.22
2024-05-09T05:57:59.776Z,100455.66
2024-05-09T06:02:57.149Z,100461.72
2024-05-09T06:05:25.974Z,100464.53
2024-05-09T06:07:55.395Z,100457.88
2024-05-09T06:10:29.610Z,100454.56
2024-05-09T06:13:02.353Z,100458.19
2024-05-09T06:15:29.485Z,100447.88
2024-05-09T06:17:57.598Z,100451.97
2024-05-09T06:20:34.588Z,100447.84
2024-05-09T06:23:05.793Z,100457.66
2024-05-09T06:25:34.181Z,100450.28
2024-05-09T06:28:09.550Z,100457.59
2024-05-09T06:30:43.824Z,100451.91
2024-05-09T07:23:38.299Z,100445.84
2024-05-09T09:28:53.574Z,100393.41
2024-05-09T10:02:13.031Z,100377.84
2024-05-09T10:30:43.021Z,100362.19
2024-05-09T10:33:11.997Z,100353.69
2024-05-09T10:35:42.441Z,100363.38
2024-05-09T10:38:10.655Z,100373.78
2024-05-09T10:41:03.839Z,100358.44
2024-05-09T10:43:31.514Z,100356.06
2024-05-09T10:45:59.907Z,100343.09
2024-05-09T10:48:27.820Z,100353.03
2024-05-09T10:50:55.372Z,100353.88
2024-05-09T10:53:23.246Z,100347.47
2024-05-09T10:56:03.466Z,100347.38
2024-05-09T10:58:30.841Z,100344.72
2024-05-09T11:00:59.381Z,100336.69
2024-05-09T11:03:34.747Z,100337.25
2024-05-09T11:06:03.755Z,100334.59
2024-05-09T11:08:35.170Z,100327.94
2024-05-09T11:11:08.729Z,100330.03
2024-05-09T11:13:41.397Z,100337.09
2024-05-09T11:16:20.710Z,100331.16
2024-05-09T11:18:56.828Z,100324.09
2024-05-09T11:21:25.314Z,100328.25
2024-05-09T11:23:53.254Z,100328.84
2024-05-09T11:26:22.442Z,100322.63
2024-05-09T11:29:02.417Z,100314.19
2024-05-09T11:31:30.074Z,100308.44
2024-05-09T11:34:06.547Z,100315.16
2024-05-09T11:40:21.025Z,100308.84
2024-05-09T11:42:53.140Z,100304.97
2024-05-09T11:45:24.461Z,100313.50
2024-05-09T11:47:51.923Z,100308.00
2024-05-09T11:50:27.023Z,100310.31
2024-05-09T11:53:07.722Z,100301.81
2024-05-09T11:55:38.400Z,100298.63
2024-05-09T11:58:05.998Z,100300.13
2024-05-09T12:00:37.096Z,100293.66
2024-05-09T12:03:08.276Z,100294.94
2024-05-09T12:05:35.806Z,100289.53
2024-05-09T12:08:03.216Z,100286.72
2024-05-09T12:10:34.413Z,100294.06
2024-05-09T12:13:05.349Z,100289.47
2024-05-09T12:15:37.549Z,100292.25
2024-05-09T12:18:07.167Z,100281.94
2024-05-09T12:20:38.452Z,100283.28
2024-05-09T12:23:10.118Z,100282.94
2024-05-09T12:25:39.983Z,100273.09
2024-05-09T12:28:08.593Z,100276.16
2024-05-09T12:30:40.468Z,100271.69
2024-05-09T12:33:12.225Z,100264.56
2024-05-09T12:35:43.460Z,100260.91
2024-05-09T12:38:13.949Z,100263.41
2024-05-09T12:40:42.332Z,100265.97
2024-05-09T12:43:11.068Z,100262.47
2024-05-09T12:45:40.506Z,100257.63
2024-05-09T12:48:12.546Z,100253.97
2024-05-09T12:53:36.405Z,100245.84
2024-05-09T12:56:04.898Z,100240.22
2024-05-09T12:58:33.584Z,100239.09
2024-05-09T13:01:01.052Z,100235.94
2024-05-09T13:03:29.268Z,100238.69
2024-05-09T13:05:57.767Z,100228.97
2024-05-09T13:08:25.077Z,100234.78
2024-05-09T13:10:52.782Z,100236.78
2024-05-09T13:13:20.244Z,100241.41
2024-05-09T13:15:48.412Z,100229.44
2024-05-09T13:18:16.755Z,100233.41
2024-05-09T13:20:45.830Z,100228.41
2024-05-09T13:23:13.740Z,100233.13
2024-05-09T13:25:41.097Z,100226.22
2024-05-09T13:28:09.130Z,100231.72
2024-05-09T13:30:40.902Z,100223.84
2024-05-09T13:33:12.279Z,100223.88
2024-05-09T13:35:47.054Z,100223.59
2024-05-09T13:38:20.774Z,100224.28
2024-05-09T13:40:49.856Z,100214.38
2024-05-09T13:43:19.940Z,100219.16
2024-05-09T13:45:48.357Z,100214.44
2024-05-09T13:48:16.683Z,100213.06
2024-05-09T13:50:44.377Z,100204.72
2024-05-09T13:53:12.888Z,100208.41
2024-05-09T13:55:41.392Z,100213.38
2024-05-09T13:58:10.618Z,100213.56
2024-05-09T14:00:48.379Z,100204.00
2024-05-09T14:03:20.342Z,100197.53
2024-05-09T14:05:52.159Z,100196.53
2024-05-09T14:08:22.822Z,100196.53
2024-05-09T14:10:52.815Z,100191.53
2024-05-09T14:13:20.321Z,100187.31
2024-05-09T14:15:48.126Z,100192.25
2024-05-09T14:18:18.462Z,100192.97
2024-05-09T14:20:46.477Z,100196.84
2024-05-09T14:23:15.558Z,100199.69
2024-05-09T14:25:45.471Z,100191.47
2024-05-09T14:28:14.461Z,100192.25
2024-05-09T14:30:43.157Z,100188.72
2024-05-09T14:33:12.248Z,100192.00
2024-05-09T14:35:39.904Z,100192.34
2024-05-09T14:38:09.272Z,100196.88
2024-05-09T14:40:42.988Z,100194.16
2024-05-09T14:43:16.593Z,100193.06
2024-05-09T14:45:45.667Z,100193.97
2024-05-09T14:48:15.930Z,100198.34
2024-05-09T14:50:44.204Z,100194.53
2024-05-09T14:53:13.889Z,100192.84
2024-05-09T14:55:43.485Z,100200.03
2024-05-09T14:58:13.329Z,100190.91
2024-05-09T15:03:19.547Z,100182.50
2024-05-09T15:05:48.421Z,100183.03
2024-05-09T15:08:19.196Z,100177.81
2024-05-09T15:10:50.643Z,100180.03
2024-05-09T15:13:20.466Z,100175.47
2024-05-09T15:15:51.230Z,100176.59
2024-05-09T15:18:19.445Z,100173.38
2024-05-09T15:20:47.935Z,100166.81
2024-05-09T15:23:16.547Z,100176.69
2024-05-09T15:25:45.133Z,100180.81
2024-05-09T15:28:13.011Z,100183.66
2024-05-09T15:30:44.005Z,100176.41
2024-05-09T15:33:16.341Z,100182.13
2024-05-09T15:35:44.885Z,100171.53
2024-05-09T15:38:13.149Z,100171.31
2024-05-09T15:40:41.395Z,100180.34
2024-05-09T15:43:10.590Z,100175.09
2024-05-09T15:45:41.203Z,100181.53
2024-05-09T15:48:10.534Z,100173.94
2024-05-09T15:50:41.242Z,100176.28
2024-05-09T15:53:12.583Z,100169.78
2024-05-09T15:55:41.653Z,100166.94
2024-05-09T15:58:10.819Z,100168.97
2024-05-09T16:00:43.461Z,100165.78
2024-05-09T16:03:14.507Z,100164.50
2024-05-09T16:05:46.777Z,100158.16
2024-05-09T16:08:16.831Z,100171.53
2024-05-09T16:10:49.069Z,100173.63
2024-05-09T16:13:18.471Z,100160.25
2024-05-09T16:15:48.137Z,100167.53
2024-05-09T16:18:16.936Z,100162.38
2024-05-09T16:20:47.238Z,100160.00
2024-05-09T16:23:17.046Z,100159.03
2024-05-09T16:25:50.857Z,100156.00
2024-05-09T16:28:24.686Z,100157.22
2024-05-09T16:30:54.494Z,100153.22
2024-05-09T16:33:24.508Z,100156.59
2024-05-09T16:35:56.291Z,100150.69
2024-05-09T16:38:24.088Z,100161.03
2024-05-09T16:40:52.989Z,100156.75
2024-05-09T16:43:21.325Z,100160.56
2024-05-09T16:45:49.355Z,100162.53
2024-05-09T16:48:17.346Z,100159.13
2024-05-09T16:50:45.859Z,100165.13
2024-05-09T16:53:14.392Z,100157.50
2024-05-09T16:55:45.514Z,100160.34
2024-05-09T16:58:17.617Z,100159.81
2024-05-09T17:00:46.023Z,100164.41
2024-05-09T17:03:15.727Z,100167.38
2024-05-09T17:05:48.896Z,100165.63
2024-05-09T17:08:21.630Z,100170.47
2024-05-09T17:10:51.929Z,100167.66
2024-05-09T17:13:20.245Z,100165.78
2024-05-09T17:15:51.255Z,100168.19
2024-05-09T17:18:19.842Z,100174.72
2024-05-09T17:20:49.796Z,100169.06
2024-05-09T17:23:22.580Z,100171.00
2024-05-09T17:25:52.268Z,100174.59
2024-05-09T17:28:22.076Z,100176.19
2024-05-09T17:30:52.942Z,100174.03
2024-05-09T17:33:20.774Z,100167.44
2024-05-09T17:35:52.169Z,100173.69
2024-05-09T17:38:20.891Z,100183.41
2024-05-09T17:40:49.338Z,100178.84
2024-05-09T17:43:24.081Z,100183.09
2024-05-09T17:45:51.657Z,100183.63
2024-05-09T17:48:21.685Z,100183.19
2024-05-09T17:50:51.522Z,100184.22
2024-05-09T17:53:20.366Z,100190.28
2024-05-09T17:55:50.106Z,100193.16
2024-05-09T17:58:21.132Z,100196.97
2024-05-09T18:00:48.943Z,100196.22
2024-05-09T18:03:16.571Z,100192.97
2024-05-09T18:05:44.960Z,100208.00
2024-05-09T18:08:15.430Z,100201.53
2024-05-09T18:10:43.196Z,100207.41
2024-05-09T18:13:11.901Z,100201.53
2024-05-09T18:15:39.979Z,100198.31
2024-05-09T18:18:08.054Z,100210.38
2024-05-09T18:20:42.011Z,100208.38
2024-05-09T18:23:14.406Z,100216.06
2024-05-09T18:25:42.755Z,100212.28
2024-05-09T18:28:10.077Z,100223.44
2024-05-09T18:30:37.843Z,100214.16
2024-05-09T18:33:07.722Z,100217.00
2024-05-09T18:35:36.234Z,100220.88
2024-05-09T18:38:03.880Z,100213.31
2024-05-09T18:40:35.037Z,100217.19
2024-05-09T18:43:07.001Z,100213.97
2024-05-09T18:45:36.661Z,100216.72
2024-05-09T18:48:05.637Z,100224.91
2024-05-09T18:50:37.317Z,100228.50
2024-05-09T18:53:07.412Z,100229.53
2024-05-09T18:55:34.231Z,100223.56
2024-05-09T18:58:01.471Z,100227.25
2024-05-09T19:00:34.698Z,100232.66
2024-05-09T19:03:09.354Z,100237.97
2024-05-09T19:05:39.191Z,100237.28
2024-05-09T19:08:07.534Z,100230.28
2024-05-09T19:10:49.915Z,100239.34
2024-05-09T19:13:17.192Z,100236.22
2024-05-09T19:15:44.677Z,100243.56
2024-05-09T19:18:14.050Z,100244.69
2024-05-09T19:20:42.112Z,100245.97
2024-05-09T19:23:10.875Z,100242.00
2024-05-09T19:25:38.018Z,100241.47
2024-05-09T19:28:05.758Z,100248.78
2024-05-09T19:30:39.083Z,100247.28
2024-05-09T19:33:10.777Z,100247.63
2024-05-09T19:35:39.305Z,100250.50
2024-05-09T19:38:06.504Z,100246.31
2024-05-09T19:40:35.094Z,100249.91
2024-05-09T19:43:04.333Z,100251.75
2024-05-09T19:45:33.373Z,100252.66
2024-05-09T19:48:01.467Z,100250.97
2024-05-09T19:50:37.105Z,100255.34
2024-05-09T19:53:10.697Z,100248.31
2024-05-09T19:55:38.168Z,100246.66
2024-05-09T19:58:07.159Z,100256.50
2024-05-09T20:00:38.148Z,100253.22
2024-05-09T20:03:07.770Z,100254.34
2024-05-09T20:05:35.439Z,100257.97
2024-05-09T20:08:02.924Z,100257.22
2024-05-09T20:10:33.018Z,100259.94
2024-05-09T20:13:02.726Z,100258.31
2024-05-09T20:15:30.115Z,100258.41
2024-05-09T20:17:57.304Z,100255.91
2024-05-09T20:20:33.263Z,100255.94
2024-05-09T20:23:08.320Z,100256.91
2024-05-09T20:25:35.490Z,100268.47
2024-05-09T20:28:03.251Z,100263.25
2024-05-09T20:30:32.942Z,100262.41
2024-05-09T20:33:07.505Z,100258.06
2024-05-09T20:35:35.998Z,100263.31
2024-05-09T20:38:03.972Z,100266.81
2024-05-09T20:40:35.638Z,100263.34
2024-05-09T20:43:10.371Z,100264.25
2024-05-09T20:45:37.775Z,100267.72
2024-05-09T20:48:05.672Z,100259.84
2024-05-09T20:50:38.681Z,100260.78
2024-05-09T20:53:13.190Z,100263.44
2024-05-09T20:55:41.287Z,100258.22
2024-05-09T20:58:09.268Z,100259.28
2024-05-09T21:00:40.515Z,100258.41
2024-05-09T21:03:12.007Z,100265.16
2024-05-09T21:05:39.727Z,100264.56
2024-05-09T21:08:07.217Z,100261.94
2024-05-09T21:10:36.358Z,100265.44
2024-05-09T21:13:04.566Z,100271.63
2024-05-09T21:15:32.156Z,100265.50
2024-05-09T21:17:59.564Z,100273.38
2024-05-09T21:22:57.800Z,100266.41
2024-05-09T21:25:25.079Z,100266.38
2024-05-09T21:27:52.266Z,100278.63
2024-05-09T21:30:31.223Z,100280.34
2024-05-09T21:33:06.146Z,100282.94
2024-05-09T21:35:33.162Z,100284.78
2024-05-09T21:38:00.294Z,100284.78
2024-05-09T21:40:33.873Z,100292.72
2024-05-09T21:43:03.718Z,100296.25
2024-05-09T21:45:30.908Z,100298.09
2024-05-09T21:47:58.124Z,100294.59
2024-05-09T21:50:32.346Z,100290.31
2024-05-09T21:53:06.942Z,100299.16
2024-05-09T21:55:34.212Z,100296.59
2024-05-09T21:58:01.567Z,100300.09
2024-05-09T22:00:35.659Z,100303.66
2024-05-09T22:03:05.973Z,100299.34
2024-05-09T22:05:33.272Z,100301.19
2024-05-09T22:08:01.176Z,100306.47
2024-05-09T22:10:33.840Z,100309.09
2024-05-09T22:13:05.092Z,100312.63
2024-05-09T22:15:35.714Z,100316.09
2024-05-09T22:18:03.948Z,100313.53
2024-05-09T22:20:36.989Z,100310.91
2024-05-09T22:23:06.892Z,100310.88
2024-05-09T22:25:34.179Z,100310.13
2024-05-09T22:28:02.006Z,100304.00
2024-05-09T22:32:59.235Z,100305.69
2024-05-09T22:35:26.366Z,100303.94
2024-05-09T22:37:53.518Z,100310.88
2024-05-09T22:40:29.159Z,100312.59
2024-05-09T22:43:05.764Z,100309.97
2024-05-09T22:45:32.957Z,100312.59
2024-05-09T22:48:00.480Z,100305.59
2024-05-09T22:50:32.777Z,100316.97
2024-05-09T22:53:00.977Z,100303.03
2024-05-09T22:55:28.060Z,100301.34
2024-05-09T22:57:55.238Z,100309.19
2024-05-09T23:00:30.909Z,100309.22
2024-05-09T23:03:03.021Z,100307.47
2024-05-09T23:05:31.062Z,100304.84
2024-05-09T23:07:58.170Z,100310.06
2024-05-09T23:10:32.350Z,100304.00
2024-05-09T23:13:04.109Z,100304.88
2024-05-09T23:15:31.113Z,100303.19
2024-05-09T23:17:58.669Z,100305.00
2024-05-09T23:20:33.738Z,100306.78
2024-05-09T23:23:06.520Z,100303.31
2024-05-09T23:25:33.636Z,100300.75
2024-05-09T23:28:00.840Z,100299.00
2024-05-09T23:30:36.356Z,100296.38
2024-05-09T23:33:07.069Z,100301.69
2024-05-09T23:35:34.077Z,100299.16
2024-05-09T23:38:01.171Z,100303.53
2024-05-09T23:40:37.591Z,100302.72
2024-05-09T23:43:08.592Z,100291.38
2024-05-09T23:45:36.041Z,100295.75
2024-05-09T23:48:03.580Z,100295.81
2024-05-09T23:50:35.091Z,100299.31
2024-05-09T23:53:05.590Z,100301.09
2024-05-09T23:55:34.646Z,100296.72
2024-05-09T23:58:02.523Z,100296.72
